Time;durP1;ratioP1;P1;durP2;ratioP2;P2;SDS_P1;SDS_P2;PMS_P1;PMS_P2;Temp;Humidity;BMP_temperature;BMP_pressure;BME280_temperature;BME280_humidity;BME280_pressure;Samples;Min_cycle;Max_cycle;Signal;HPM_P1;HPM_P2
2023/05/22 00:00:20;;;;;;;6.90;6.20;;;23.50;59.40;;;26.10;40.56;101495.59;5053468;28;20676;-67
2023/05/22 00:02:49;;;;;;;7.20;6.60;;;23.50;59.30;;;26.06;40.94;101498.00;5053342;28;20639;-66
2023/05/22 00:05:17;;;;;;;7.57;6.97;;;23.50;59.30;;;26.04;41.06;101500.13;5053270;28;20222;-67
2023/05/22 00:07:45;;;;;;;7.63;6.93;;;23.50;59.30;;;26.02;41.08;101490.66;5053186;28;20201;-69
2023/05/22 00:10:12;;;;;;;7.63;6.57;;;23.50;59.30;;;25.99;40.51;101494.69;5053299;28;20201;-67
2023/05/22 00:12:39;;;;;;;7.60;7.00;;;23.40;59.10;;;25.97;40.92;101496.03;5053313;28;20554;-67
2023/05/22 00:15:08;;;;;;;7.77;6.97;;;23.40;59.10;;;25.94;41.00;101493.81;5053149;28;20224;-70
2023/05/22 00:17:35;;;;;;;7.30;6.70;;;23.40;59.10;;;25.90;41.17;101495.41;5053393;28;20501;-69
2023/05/22 00:20:05;;;;;;;7.60;6.90;;;23.40;59.00;;;25.88;40.43;101490.28;5053395;28;20198;-68
2023/05/22 00:22:35;;;;;;;7.17;6.53;;;23.40;59.10;;;25.87;41.23;101491.34;5053413;28;20288;-67
2023/05/22 00:25:05;;;;;;;7.10;6.50;;;23.40;59.10;;;25.85;41.10;101489.97;5052850;28;20218;-67
2023/05/22 00:27:33;;;;;;;7.47;6.77;;;23.30;59.10;;;25.83;41.15;101492.94;5053417;28;20186;-67
2023/05/22 00:30:00;;;;;;;6.77;6.13;;;23.30;59.10;;;25.81;40.71;101489.69;5053087;28;20191;-68
2023/05/22 00:32:27;;;;;;;6.57;5.97;;;23.30;59.10;;;25.81;40.94;101484.31;5053294;28;20194;-69
2023/05/22 00:34:54;;;;;;;6.30;5.80;;;23.30;59.20;;;25.80;41.10;101481.84;5053295;28;20206;-67
2023/05/22 00:37:22;;;;;;;7.00;6.37;;;23.30;59.20;;;25.80;40.60;101476.44;5057376;28;20200;-67
2023/05/22 00:39:49;;;;;;;6.73;6.23;;;23.20;59.10;;;25.77;41.30;101477.78;5057488;28;20190;-67
2023/05/22 00:42:17;;;;;;;7.10;6.47;;;23.20;59.20;;;25.75;40.92;101468.31;5057080;28;20205;-68
2023/05/22 00:44:44;;;;;;;7.20;6.43;;;23.20;59.20;;;25.70;40.73;101474.47;5057334;28;20594;-68
2023/05/22 00:47:11;;;;;;;8.17;6.80;;;23.10;59.30;;;25.65;40.78;101471.72;5057065;28;20681;-66
2023/05/22 00:49:39;;;;;;;7.10;6.50;;;23.10;59.30;;;25.62;40.96;101468.75;5057284;28;20182;-67
2023/05/22 00:52:07;;;;;;;6.47;5.97;;;23.10;59.50;;;25.59;41.57;101463.84;5056629;28;20276;-67
2023/05/22 00:54:35;;;;;;;6.87;6.03;;;23.00;59.40;;;25.56;41.36;101467.88;5056654;28;20555;-67
2023/05/22 00:57:04;;;;;;;6.63;5.97;;;23.00;59.50;;;25.54;40.95;101470.00;5057004;28;20205;-67
2023/05/22 00:59:32;;;;;;;9.33;7.03;;;23.00;59.60;;;25.51;41.42;101459.72;5056510;28;20241;-67
2023/05/22 01:02:00;;;;;;;7.07;5.80;;;22.90;59.60;;;25.48;41.17;101463.75;5056448;28;20201;-67
2023/05/22 01:04:31;;;;;;;5.90;5.50;;;22.90;59.60;;;25.45;41.07;101453.50;5056137;28;20213;-67
2023/05/22 01:07:01;;;;;;;6.47;5.90;;;22.80;59.70;;;25.42;41.78;101458.53;5056517;28;20190;-68
2023/05/22 01:09:28;;;;;;;6.70;6.10;;;22.80;59.90;;;25.38;41.37;101452.84;5056516;28;20221;-67
2023/05/22 01:12:04;;;;;;;5.93;5.43;;;22.80;59.90;;;25.34;41.45;101456.31;5056355;28;20182;-67
2023/05/22 01:14:52;;;;;;;7.80;6.30;;;22.70;60.00;;;25.26;41.33;101460.28;5056433;28;20221;-68
2023/05/22 01:17:33;;;;;;;6.80;6.20;;;22.70;60.00;;;25.24;41.33;101459.72;5056423;28;20253;-68
2023/05/22 01:20:15;;;;;;;6.33;5.83;;;22.60;60.10;;;25.18;41.92;101460.72;5056358;28;20627;-67
2023/05/22 01:23:25;;;;;;;7.40;6.80;;;22.60;60.20;;;25.08;41.86;101457.91;5056743;28;20261;-67
2023/05/22 01:26:10;;;;;;;6.67;6.17;;;22.60;60.40;;;25.07;41.66;101463.56;5056252;28;20218;-67
2023/05/22 01:28:59;;;;;;;7.13;6.47;;;22.50;60.50;;;25.02;42.41;101453.53;5044019;28;20206;-68
2023/05/22 01:31:32;;;;;;;6.60;6.00;;;22.40;60.70;;;25.03;42.20;101455.16;5036186;28;20207;-68
2023/05/22 01:34:02;;;;;;;5.77;5.37;;;22.40;60.90;;;25.02;42.46;101452.72;5036001;28;20194;-67
2023/05/22 01:36:33;;;;;;;7.23;6.63;;;22.40;61.00;;;24.97;42.10;101456.16;5036318;28;20614;-68
2023/05/22 01:39:04;;;;;;;7.60;6.17;;;22.30;61.30;;;24.95;42.86;101452.09;5036167;28;20240;-68
2023/05/22 01:41:32;;;;;;;6.03;5.53;;;22.30;61.50;;;24.91;42.24;101443.72;5035761;28;20289;-67
2023/05/22 01:44:01;;;;;;;9.03;6.70;;;22.30;61.90;;;24.88;42.78;101446.91;5035989;28;20209;-67
2023/05/22 01:46:30;;;;;;;7.73;7.03;;;22.20;61.80;;;24.84;43.13;101441.19;5034948;28;20207;-67
2023/05/22 01:48:58;;;;;;;7.37;6.67;;;22.20;62.20;;;24.81;43.24;101440.91;5035922;28;20205;-68
2023/05/22 01:51:38;;;;;;;7.13;6.53;;;22.10;62.10;;;24.74;42.81;101440.25;5035730;28;20191;-67
2023/05/22 01:54:16;;;;;;;7.03;6.33;;;22.10;62.40;;;24.69;42.94;101432.91;5035338;28;20228;-68
2023/05/22 01:56:53;;;;;;;7.83;7.03;;;22.00;62.40;;;24.65;43.28;101436.38;5035609;28;20661;-68
2023/05/22 01:59:31;;;;;;;6.60;6.00;;;22.00;62.60;;;24.61;43.00;101437.91;5035655;28;20194;-67
2023/05/22 02:02:06;;;;;;;6.27;5.67;;;21.90;62.70;;;24.57;43.12;101436.78;5035346;28;20183;-67
2023/05/22 02:04:59;;;;;;;8.00;7.20;;;21.90;62.80;;;24.50;43.37;101433.47;5054868;28;20297;-67
2023/05/22 02:07:36;;;;;;;6.53;5.93;;;21.90;62.90;;;24.47;43.44;101439.34;5055372;28;20174;-67
2023/05/22 02:10:07;;;;;;;7.17;6.53;;;21.80;63.70;;;24.44;43.32;101434.47;5055062;28;20197;-67
2023/05/22 02:12:35;;;;;;;7.20;6.60;;;21.80;63.30;;;24.43;43.46;101440.91;5055266;28;20206;-68
2023/05/22 02:15:04;;;;;;;7.00;6.40;;;21.70;63.40;;;24.42;43.70;101436.56;5055258;28;20246;-67
2023/05/22 02:17:39;;;;;;;7.07;6.37;;;21.70;63.50;;;24.38;43.67;101438.16;5055285;28;20193;-67
2023/05/22 02:20:14;;;;;;;7.53;6.83;;;21.70;63.70;;;24.34;44.10;101440.53;5055265;28;20182;-67
2023/05/22 02:22:43;;;;;;;6.87;6.37;;;21.60;63.70;;;24.32;44.13;101442.63;5055113;28;20201;-67
2023/05/22 02:25:13;;;;;;;7.67;6.93;;;21.60;63.90;;;24.29;43.76;101440.47;5047102;28;20222;-67
2023/05/22 02:27:40;;;;;;;9.87;7.33;;;21.60;64.00;;;24.28;44.08;101438.81;5035503;28;20186;-67
2023/05/22 02:30:08;;;;;;;6.97;6.37;;;21.50;64.10;;;24.26;43.79;101438.25;5035096;28;20197;-67
2023/05/22 02:32:37;;;;;;;7.73;6.67;;;21.50;64.10;;;24.23;43.96;101439.56;5036178;28;20258;-67
2023/05/22 02:35:05;;;;;;;7.57;6.87;;;21.50;64.20;;;24.20;43.81;101429.28;5038665;28;20211;-67
2023/05/22 02:37:32;;;;;;;7.47;6.77;;;21.50;64.30;;;24.18;44.25;101426.03;5037373;28;20750;-67
2023/05/22 02:39:59;;;;;;;6.80;6.27;;;21.40;64.20;;;24.17;44.42;101418.22;5035710;28;20222;-67
2023/05/22 02:42:26;;;;;;;6.77;6.27;;;21.40;64.30;;;24.15;44.30;101421.13;5034976;28;20199;-67
2023/05/22 02:44:53;;;;;;;6.23;5.73;;;21.40;64.30;;;24.13;44.00;101415.19;5034466;28;20722;-67
2023/05/22 02:47:20;;;;;;;7.23;6.47;;;21.40;64.30;;;24.11;44.13;101417.31;5034848;28;20229;-67
2023/05/22 02:49:48;;;;;;;8.47;6.40;;;21.30;64.30;;;24.09;44.22;101416.75;5034629;28;20220;-67
2023/05/22 02:52:16;;;;;;;6.63;5.83;;;21.30;64.40;;;24.07;44.17;101413.50;5034503;28;20195;-67
2023/05/22 02:54:43;;;;;;;6.27;5.77;;;21.30;64.30;;;24.05;44.51;101410.22;5034247;28;20297;-68
2023/05/22 02:57:10;;;;;;;6.90;6.20;;;21.30;64.30;;;24.02;44.19;101410.69;5034445;28;20195;-67
2023/05/22 02:59:37;;;;;;;6.63;6.03;;;21.30;64.30;;;24.01;44.19;101408.28;5034329;28;20199;-67
2023/05/22 03:02:05;;;;;;;6.57;5.97;;;21.30;64.30;;;23.98;44.22;101408.75;5033866;28;20682;-67
2023/05/22 03:04:32;;;;;;;7.73;7.03;;;21.30;64.40;;;23.98;44.37;101401.50;5033921;28;20210;-67
2023/05/22 03:07:01;;;;;;;6.77;6.13;;;21.20;64.30;;;23.97;44.30;101402.56;5033940;28;20253;-67
2023/05/22 03:09:28;;;;;;;6.87;6.17;;;21.20;64.30;;;23.96;44.29;101400.13;5042582;28;20273;-67
2023/05/22 03:11:55;;;;;;;6.87;6.27;;;21.20;64.30;;;23.96;44.05;101398.22;5054128;28;20674;-67
2023/05/22 03:14:22;;;;;;;7.07;6.40;;;21.20;64.30;;;23.96;44.22;101394.75;5053839;28;20267;-68
2023/05/22 03:16:49;;;;;;;6.67;6.07;;;21.20;64.30;;;23.95;44.22;101390.41;5054043;28;20182;-67
2023/05/22 03:19:16;;;;;;;6.83;6.13;;;21.20;64.20;;;23.95;44.49;101387.72;5053950;28;20190;-67
2023/05/22 03:21:43;;;;;;;6.40;5.90;;;21.20;64.20;;;23.93;43.98;101385.28;5053954;28;20670;-67
2023/05/22 03:24:11;;;;;;;7.13;5.13;;;21.20;64.10;;;23.95;43.61;101393.91;5053559;28;20210;-67
2023/05/22 03:26:38;;;;;;;6.97;6.30;;;21.20;64.20;;;23.94;44.21;101386.91;5053936;28;20300;-67
2023/05/22 03:29:05;;;;;;;6.60;5.50;;;21.20;64.20;;;23.95;43.88;101396.59;5052754;28;20269;-67
2023/05/22 03:31:33;;;;;;;5.97;5.37;;;21.20;64.10;;;23.98;44.02;101387.22;5053552;28;20194;-67
2023/05/22 03:34:01;;;;;;;7.23;6.53;;;21.20;64.10;;;23.98;43.80;101388.06;5053405;28;20197;-67
2023/05/22 03:36:28;;;;;;;6.40;5.80;;;21.20;64.00;;;23.97;43.66;101389.09;5053205;28;20236;-67
2023/05/22 03:38:58;;;;;;;9.23;6.23;;;21.20;63.90;;;23.98;43.92;101390.75;5053418;28;20187;-67
2023/05/22 03:41:26;;;;;;;6.90;6.30;;;21.20;63.90;;;24.00;43.93;101390.50;5053261;28;20289;-67
2023/05/22 03:43:53;;;;;;;5.63;5.20;;;21.20;63.80;;;23.99;43.99;101395.03;5053123;28;20190;-67
2023/05/22 03:46:20;;;;;;;8.03;6.03;;;21.20;63.80;;;24.01;44.01;101398.31;5053430;28;20641;-67
2023/05/22 03:48:47;;;;;;;6.93;4.70;;;21.20;63.80;;;24.02;43.80;101399.94;5053604;28;20194;-68
2023/05/22 03:51:15;;;;;;;5.80;5.30;;;21.20;63.80;;;24.06;43.64;101405.63;5053096;28;20189;-68
2023/05/22 03:53:45;;;;;;;6.80;6.03;;;21.20;63.70;;;24.09;43.56;101399.78;5052064;28;20190;-68
2023/05/22 03:56:12;;;;;;;6.03;5.53;;;21.20;63.80;;;24.11;43.40;101403.03;5053286;28;20217;-70
2023/05/22 03:58:40;;;;;;;6.00;5.50;;;21.30;63.80;;;24.13;43.79;101401.75;5053272;28;20216;-68
2023/05/22 04:01:08;;;;;;;6.03;5.43;;;21.30;63.80;;;24.15;43.48;101402.31;5053124;28;20668;-68
2023/05/22 04:03:35;;;;;;;6.37;5.87;;;21.30;63.70;;;24.17;43.71;101405.59;5053133;28;20558;-68
2023/05/22 04:06:04;;;;;;;6.07;5.57;;;21.30;63.70;;;24.18;43.56;101403.69;5052764;28;20706;-68
2023/05/22 04:08:31;;;;;;;7.20;5.37;;;21.30;63.40;;;24.17;43.32;101402.88;5053173;28;20186;-68
2023/05/22 04:10:58;;;;;;;6.50;5.70;;;21.30;63.30;;;24.17;43.37;101405.59;5052807;28;20310;-68
2023/05/22 04:13:26;;;;;;;6.67;6.07;;;21.30;63.30;;;24.18;43.22;101399.13;5053046;28;20281;-68
2023/05/22 04:15:55;;;;;;;6.43;5.83;;;21.30;63.30;;;24.16;43.03;101406.63;5053215;28;20213;-68
2023/05/22 04:18:22;;;;;;;6.93;5.87;;;21.30;63.30;;;24.17;43.39;101402.06;5032888;28;20226;-68
2023/05/22 04:20:50;;;;;;;6.73;6.00;;;21.30;63.30;;;24.17;43.50;101394.00;5032699;28;20289;-68
2023/05/22 04:23:17;;;;;;;5.93;5.37;;;21.30;63.50;;;24.19;43.21;101400.75;5032997;28;20183;-68
2023/05/22 04:25:46;;;;;;;6.47;5.90;;;21.30;63.50;;;24.22;43.32;101410.22;5043013;28;20709;-68
2023/05/22 04:28:16;;;;;;;6.43;5.73;;;21.30;63.70;;;24.23;43.25;101401.06;5052757;28;20249;-68
2023/05/22 04:30:43;;;;;;;6.70;6.10;;;21.30;63.70;;;24.25;43.12;101414.28;5052842;28;20554;-68
2023/05/22 04:33:12;;;;;;;7.23;6.10;;;21.30;63.70;;;24.25;43.33;101411.59;5053108;28;20198;-68
2023/05/22 04:35:39;;;;;;;6.93;6.23;;;21.40;64.50;;;24.25;43.20;101398.16;5052644;28;20225;-67
2023/05/22 04:38:06;;;;;;;6.20;5.70;;;21.40;63.80;;;24.28;43.74;101408.38;5053148;28;20186;-68
2023/05/22 04:40:33;;;;;;;8.77;6.20;;;21.40;63.80;;;24.29;43.03;101399.25;5053890;28;20194;-68
2023/05/22 04:43:00;;;;;;;6.70;6.10;;;21.40;63.70;;;24.30;43.73;101401.69;5053017;28;20193;-68
2023/05/22 04:45:28;;;;;;;8.33;5.90;;;21.40;63.80;;;24.29;43.54;101399.25;5052747;28;20234;-67
2023/05/22 04:47:55;;;;;;;6.90;6.17;;;21.40;63.70;;;24.28;43.64;101395.75;5053250;28;20301;-68
2023/05/22 04:50:23;;;;;;;6.40;5.70;;;21.40;63.70;;;24.30;43.21;101395.50;5052736;28;20189;-68
2023/05/22 04:52:52;;;;;;;5.57;5.07;;;21.40;63.70;;;24.30;43.29;101396.31;5052867;28;20241;-68
2023/05/22 04:55:38;;;;;;;7.87;6.17;;;21.40;63.70;;;24.31;43.24;101400.66;5052599;28;20276;-68
2023/05/22 04:58:27;;;;;;;8.40;6.27;;;21.40;63.70;;;24.33;43.24;101400.38;5052500;28;20197;-68
2023/05/22 05:01:12;;;;;;;6.20;5.63;;;21.40;63.70;;;24.36;43.22;101394.53;5037046;28;20538;-68
2023/05/22 05:03:39;;;;;;;6.13;5.63;;;21.40;63.90;;;24.42;43.21;101393.50;5032264;28;20186;-68
2023/05/22 05:06:07;;;;;;;6.73;6.13;;;21.40;63.80;;;24.48;43.19;101392.53;5032498;28;20211;-68
2023/05/22 05:08:34;;;;;;;6.67;6.07;;;21.50;64.00;;;24.53;43.25;101396.06;5031992;28;20210;-68
2023/05/22 05:11:01;;;;;;;6.77;6.07;;;21.50;63.80;;;24.57;43.43;101385.63;5032406;28;20324;-68
2023/05/22 05:13:28;;;;;;;8.90;6.50;;;21.50;63.70;;;24.61;42.88;101389.44;5043369;28;20204;-68
2023/05/22 05:15:58;;;;;;;6.67;5.93;;;21.60;63.70;;;24.64;42.91;101388.94;5052100;28;20297;-68
2023/05/22 05:18:25;;;;;;;7.57;6.87;;;21.60;63.60;;;24.68;42.49;101395.44;5052402;28;20226;-68
2023/05/22 05:20:52;;;;;;;7.30;6.47;;;21.70;63.50;;;24.69;42.50;101394.41;5052430;28;20273;-68
2023/05/22 05:23:21;;;;;;;6.90;6.20;;;21.70;63.40;;;24.72;43.23;101388.50;5054710;28;20308;-68
2023/05/22 05:25:48;;;;;;;7.07;6.33;;;21.70;63.20;;;24.77;42.74;101391.31;5055737;28;20313;-68
2023/05/22 05:28:15;;;;;;;7.10;6.50;;;21.80;63.20;;;24.83;43.00;101393.78;5055713;28;20281;-68
2023/05/22 05:30:42;;;;;;;7.23;6.50;;;21.80;63.10;;;24.91;42.58;101389.84;5055896;28;20709;-68
2023/05/22 05:33:09;;;;;;;6.10;5.50;;;21.90;62.90;;;24.96;42.60;101389.88;5055693;28;20194;-68
2023/05/22 05:35:36;;;;;;;6.50;6.00;;;21.90;62.80;;;25.02;42.55;101388.06;5056149;28;20704;-68
2023/05/22 05:38:03;;;;;;;6.50;5.90;;;22.00;62.60;;;25.05;41.77;101399.16;5055260;28;20681;-69
2023/05/22 05:40:31;;;;;;;6.97;6.40;;;22.00;61.90;;;25.06;41.27;101399.94;5055115;28;20651;-67
2023/05/22 05:42:58;;;;;;;8.33;7.63;;;22.10;61.40;;;25.08;41.45;101409.41;5054565;28;20222;-69
2023/05/22 05:45:25;;;;;;;9.93;6.83;;;22.10;61.70;;;25.13;41.46;101409.44;5054881;28;20224;-70
2023/05/22 05:47:52;;;;;;;7.73;6.53;;;22.20;61.80;;;25.19;41.67;101415.72;5055121;28;20304;-70
2023/05/22 05:50:19;;;;;;;6.83;6.10;;;22.20;61.60;;;25.24;41.86;101411.19;5055391;28;20190;-68
2023/05/22 05:52:46;;;;;;;6.40;5.83;;;22.20;61.50;;;25.29;41.15;101403.13;5055427;28;20276;-68
2023/05/22 05:55:13;;;;;;;11.77;9.90;;;22.30;61.30;;;25.35;40.83;101409.41;5055288;28;20230;-69
2023/05/22 05:57:42;;;;;;;8.27;7.37;;;22.30;61.10;;;25.38;41.12;101409.72;5055041;28;20194;-69
2023/05/22 06:00:10;;;;;;;6.70;6.03;;;22.40;61.30;;;25.43;41.54;101419.72;5055063;28;20272;-69
2023/05/22 06:02:37;;;;;;;6.93;6.23;;;22.40;61.40;;;25.48;41.59;101420.59;5055026;28;20280;-69
2023/05/22 06:05:05;;;;;;;6.73;6.00;;;22.40;61.30;;;25.55;40.94;101420.41;5049248;28;20245;-69
2023/05/22 06:07:33;;;;;;;6.43;5.90;;;22.50;61.40;;;25.59;41.51;101418.81;5050689;28;20253;-69
2023/05/22 06:10:00;;;;;;;6.63;6.00;;;22.50;61.30;;;25.66;40.98;101424.81;5051266;28;20992;-69
2023/05/22 06:12:27;;;;;;;6.27;5.67;;;22.50;61.20;;;25.71;40.62;101422.16;5054735;28;20235;-69
2023/05/22 06:14:55;;;;;;;7.33;6.63;;;22.60;61.20;;;25.78;40.83;101424.63;5049208;28;20242;-68
2023/05/22 06:17:22;;;;;;;6.87;6.17;;;22.60;61.00;;;25.81;41.15;101424.13;5035301;28;20179;-69
2023/05/22 06:19:49;;;;;;;6.07;5.40;;;22.70;61.00;;;25.86;41.17;101422.28;5034594;28;20674;-69
2023/05/22 06:22:16;;;;;;;7.07;6.33;;;22.70;60.80;;;25.90;40.21;101423.38;5034151;28;20190;-69
2023/05/22 06:24:43;;;;;;;10.67;8.07;;;22.80;60.70;;;25.98;40.85;101424.78;5037829;28;20214;-69
2023/05/22 06:27:10;;;;;;;8.97;6.90;;;22.80;60.70;;;26.05;40.58;101414.59;5041632;28;20210;-68
2023/05/22 06:29:37;;;;;;;6.70;6.00;;;22.90;60.90;;;26.12;40.98;101410.63;5034892;28;20250;-69
2023/05/22 06:32:06;;;;;;;7.10;5.97;;;22.90;60.90;;;26.19;40.80;101407.69;5046533;28;20190;-69
2023/05/22 06:34:34;;;;;;;8.80;7.03;;;23.00;60.80;;;26.27;40.72;101409.09;5053577;28;20210;-68
2023/05/22 06:37:02;;;;;;;7.00;6.30;;;23.10;60.80;;;26.31;40.64;101408.28;5044490;28;20555;-68
2023/05/22 06:39:30;;;;;;;5.93;5.40;;;23.20;60.80;;;26.37;40.18;101396.44;5035073;28;20278;-69
2023/05/22 06:41:58;;;;;;;9.07;6.67;;;23.20;60.70;;;26.44;40.12;101397.00;5034341;28;20194;-69
2023/05/22 06:44:25;;;;;;;6.60;6.00;;;23.30;60.70;;;26.45;40.28;101398.63;5052359;28;20745;-70
2023/05/22 06:46:52;;;;;;;7.13;5.67;;;23.40;60.50;;;26.46;40.18;101400.25;5039728;28;20210;-70
2023/05/22 06:49:20;;;;;;;10.63;5.90;;;23.40;60.40;;;26.50;40.13;101401.38;5041594;28;20273;-69
2023/05/22 06:51:47;;;;;;;6.60;6.10;;;23.50;60.40;;;26.53;40.17;101395.41;5034746;28;20195;-68
2023/05/22 06:54:27;;;;;;;6.93;6.37;;;23.50;60.30;;;26.54;40.59;101388.13;5037842;28;20236;-70
2023/05/22 06:56:54;;;;;;;6.60;6.10;;;23.60;60.10;;;26.55;40.55;101393.28;5034958;28;20186;-69
2023/05/22 06:59:22;;;;;;;10.37;5.83;;;23.60;60.00;;;26.59;40.18;101391.66;5047529;28;20196;-71
2023/05/22 07:02:01;;;;;;;6.53;5.63;;;23.60;59.80;;;26.65;40.21;101387.06;5039942;28;20293;-71
2023/05/22 07:04:34;;;;;;;6.83;5.83;;;23.70;60.30;;;26.69;39.59;101391.72;5054722;28;20701;-71
2023/05/22 07:07:08;;;;;;;5.63;5.10;;;23.70;59.60;;;26.76;39.80;101405.81;5022413;28;20237;-71
2023/05/22 07:09:36;;;;;;;7.03;5.90;;;23.70;59.50;;;26.83;39.58;101405.56;5037815;28;20204;-69
2023/05/22 07:12:05;;;;;;;7.70;6.00;;;23.80;59.60;;;26.91;39.51;101401.53;5035330;28;20201;-70
2023/05/22 07:14:32;;;;;;;6.83;6.20;;;23.80;59.40;;;26.95;39.44;101408.03;5040595;28;20234;-70
2023/05/22 07:16:59;;;;;;;6.97;5.97;;;23.80;59.10;;;26.97;39.39;101411.28;5054878;28;20205;-70
2023/05/22 07:19:27;;;;;;;7.97;6.00;;;23.80;58.90;;;26.99;39.62;101418.03;5053677;28;20327;-70
2023/05/22 07:21:57;;;;;;;6.03;5.53;;;23.90;58.80;;;27.05;39.02;101411.56;5054486;28;20216;-72
2023/05/22 07:24:24;;;;;;;5.73;5.13;;;24.00;58.80;;;27.10;39.02;101416.19;5036867;28;20287;-71
2023/05/22 07:26:51;;;;;;;5.40;4.77;;;24.00;59.00;;;27.15;39.42;101413.47;5033905;28;20651;-69
2023/05/22 07:29:18;;;;;;;6.73;5.60;;;24.00;58.90;;;27.19;38.82;101417.28;5050429;28;20663;-69
2023/05/22 07:31:48;;;;;;;7.27;6.67;;;24.00;58.70;;;27.17;39.04;101425.63;5053392;28;20188;-68
2023/05/22 07:34:15;;;;;;;6.33;5.83;;;24.00;58.70;;;27.17;38.88;101427.56;5052943;28;20300;-68
2023/05/22 07:36:42;;;;;;;7.93;5.30;;;24.10;58.70;;;27.16;38.89;101432.13;5053398;28;20196;-69
2023/05/22 07:39:11;;;;;;;6.60;5.20;;;24.10;58.80;;;27.17;38.88;101436.44;5053358;28;20545;-69
2023/05/22 07:41:38;;;;;;;5.70;5.20;;;24.10;57.80;;;27.14;37.58;101433.47;5052743;28;20201;-69
2023/05/22 07:44:06;;;;;;;6.60;6.10;;;24.10;56.70;;;27.04;37.36;101430.75;5051645;28;20321;-69
2023/05/22 07:46:36;;;;;;;5.83;5.20;;;24.10;55.70;;;26.87;37.29;101433.66;5052854;28;20241;-69
2023/05/22 07:49:03;;;;;;;6.53;5.93;;;24.00;54.80;;;26.76;37.51;101432.03;5053255;28;20178;-69
2023/05/22 07:51:30;;;;;;;6.37;5.43;;;24.00;55.40;;;26.71;37.72;101438.19;5052692;28;20190;-69
2023/05/22 07:53:57;;;;;;;5.80;5.30;;;23.90;55.30;;;26.59;37.46;101443.00;5052573;28;20269;-69
2023/05/22 07:56:31;;;;;;;7.33;5.07;;;23.90;55.20;;;26.54;37.43;101440.28;5053076;28;20249;-69
2023/05/22 07:58:59;;;;;;;5.40;4.90;;;23.80;55.40;;;26.53;37.65;101427.81;5052860;28;20589;-69
2023/05/22 08:01:26;;;;;;;5.77;5.20;;;23.80;56.00;;;26.55;38.22;101425.69;5053348;28;20225;-69
2023/05/22 08:03:53;;;;;;;5.53;5.03;;;23.70;56.80;;;26.62;39.13;101431.69;5052882;28;20193;-69
2023/05/22 08:06:22;;;;;;;6.17;5.67;;;23.70;57.50;;;26.68;39.25;101430.59;5052999;28;20235;-69
2023/05/22 08:08:51;;;;;;;6.30;5.70;;;23.70;58.00;;;26.72;39.28;101436.31;5052955;28;20219;-69
2023/05/22 08:11:18;;;;;;;6.37;5.77;;;23.80;58.50;;;26.71;39.75;101430.09;5053222;28;20243;-69
2023/05/22 08:13:47;;;;;;;6.80;6.10;;;23.80;58.80;;;26.69;39.46;101437.66;5053237;28;20273;-69
2023/05/22 08:16:14;;;;;;;6.67;6.07;;;23.80;58.80;;;26.68;39.74;101430.59;5033491;28;20197;-69
2023/05/22 08:18:41;;;;;;;9.97;6.90;;;23.80;59.00;;;26.68;40.04;101429.78;5034204;28;20221;-68
2023/05/22 08:21:08;;;;;;;10.30;7.97;;;23.80;59.60;;;26.64;39.99;101428.69;5034779;28;20269;-69
2023/05/22 08:23:37;;;;;;;7.23;6.07;;;23.80;59.40;;;26.62;40.01;101420.88;5033728;28;20273;-69
2023/05/22 08:26:07;;;;;;;6.63;5.93;;;23.80;59.60;;;26.60;40.26;101420.28;5052527;28;20220;-69
2023/05/22 08:28:35;;;;;;;7.63;6.50;;;23.70;60.00;;;26.58;41.29;101425.16;5052829;28;20327;-68
2023/05/22 08:31:04;;;;;;;7.57;6.27;;;23.70;60.80;;;26.55;41.20;101420.31;5053077;28;20201;-68
2023/05/22 08:33:31;;;;;;;6.03;5.53;;;23.70;60.90;;;26.52;41.61;101414.59;5052939;28;20255;-68
2023/05/22 08:35:57;;;;;;;8.40;5.80;;;23.70;61.70;;;26.52;41.65;101411.91;5052440;28;20576;-69
2023/05/22 08:38:24;;;;;;;13.07;11.60;;;23.70;61.10;;;26.53;41.19;101406.22;5052682;28;20246;-70
2023/05/22 08:40:55;;;;;;;10.13;9.23;;;23.70;61.50;;;26.58;42.01;101406.25;5052269;28;20225;-69
2023/05/22 08:43:23;;;;;;;7.97;7.03;;;23.70;62.20;;;26.64;41.87;101407.91;5052602;28;20182;-70
2023/05/22 08:45:58;;;;;;;6.57;6.07;;;23.60;62.00;;;26.71;41.15;101407.66;5052713;28;20300;-69
2023/05/22 08:48:31;;;;;;;8.43;6.57;;;23.60;62.00;;;26.77;41.67;101412.00;5053216;28;20214;-70
2023/05/22 08:51:03;;;;;;;7.83;7.03;;;23.70;62.30;;;26.79;42.11;101404.47;5052521;28;20237;-68
2023/05/22 08:53:34;;;;;;;6.87;6.27;;;23.70;62.80;;;26.80;42.20;101400.69;5052503;28;20265;-70
2023/05/22 08:56:03;;;;;;;7.67;6.83;;;23.80;63.20;;;26.77;42.43;101401.19;5053459;28;20216;-68
2023/05/22 08:58:33;;;;;;;11.10;7.23;;;23.80;63.90;;;26.74;42.74;101399.03;5055956;28;20220;-69
2023/05/22 09:01:02;;;;;;;7.77;6.47;;;23.80;64.10;;;26.74;42.74;101402.50;5056066;28;20221;-70
2023/05/22 09:03:33;;;;;;;7.30;6.70;;;23.80;64.00;;;26.71;42.97;101389.56;5055916;28;20268;-69
2023/05/22 09:06:03;;;;;;;9.80;8.10;;;23.80;63.80;;;26.72;42.85;101399.28;5056020;28;20206;-69
2023/05/22 09:08:30;;;;;;;11.67;8.00;;;23.80;63.70;;;26.74;42.83;101399.03;5055756;28;20209;-69
2023/05/22 09:10:57;;;;;;;7.33;6.60;;;23.80;63.60;;;26.80;41.92;101390.69;5056317;28;20356;-69
2023/05/22 09:13:26;;;;;;;6.50;5.87;;;23.80;63.20;;;26.85;42.32;101388.00;5055977;28;20212;-70
2023/05/22 09:15:58;;;;;;;7.03;6.37;;;23.80;63.10;;;26.92;41.85;101395.03;5055424;28;20248;-69
2023/05/22 09:18:28;;;;;;;6.97;6.37;;;23.80;63.00;;;26.97;41.90;101397.75;5056033;28;20167;-69
2023/05/22 09:21:01;;;;;;;9.00;6.67;;;23.90;63.00;;;26.98;42.04;101391.28;5055873;28;20182;-69
2023/05/22 09:23:32;;;;;;;7.50;6.87;;;23.90;63.10;;;26.97;42.18;101392.34;5055922;28;20196;-69
2023/05/22 09:26:01;;;;;;;8.20;7.03;;;23.90;63.00;;;26.95;42.12;101394.50;5055707;28;20241;-69
2023/05/22 09:28:33;;;;;;;10.07;7.03;;;23.90;63.10;;;26.88;42.03;101388.53;5055416;28;20210;-70
2023/05/22 09:31:02;;;;;;;7.17;6.47;;;23.90;63.20;;;26.85;42.22;101395.28;5055767;28;20276;-69
2023/05/22 09:33:31;;;;;;;7.80;6.93;;;23.90;63.20;;;26.84;42.21;101389.06;5055201;28;20239;-69
2023/05/22 09:36:00;;;;;;;10.13;7.97;;;23.90;63.40;;;26.81;43.03;101386.91;5055902;28;20213;-69
2023/05/22 09:38:29;;;;;;;7.20;6.70;;;23.90;63.80;;;26.72;42.76;101384.97;5055229;28;20214;-69
2023/05/22 09:40:56;;;;;;;11.67;7.43;;;23.90;64.00;;;26.66;43.29;101377.91;5054992;28;20673;-68
2023/05/22 09:43:24;;;;;;;8.17;6.90;;;23.90;64.00;;;26.60;43.08;101368.19;5055309;28;20181;-69
2023/05/22 09:45:56;;;;;;;16.40;14.93;;;23.80;64.70;;;26.59;43.37;101367.38;5055812;28;20255;-69
2023/05/22 09:48:24;;;;;;;7.87;7.17;;;23.80;63.90;;;26.65;43.02;101360.06;5055205;28;20202;-69
2023/05/22 09:50:53;;;;;;;7.20;6.57;;;23.80;64.00;;;26.75;43.18;101371.75;5054589;28;20218;-69
2023/05/22 09:53:26;;;;;;;11.30;6.57;;;23.80;64.30;;;26.83;42.52;101373.13;5053574;28;20290;-69
2023/05/22 09:55:56;;;;;;;7.63;6.87;;;23.80;64.40;;;26.93;42.87;101365.06;5054998;28;20220;-69
2023/05/22 09:58:26;;;;;;;10.80;9.27;;;23.90;64.50;;;27.02;42.40;101370.75;5055149;28;20186;-68
2023/05/22 10:00:55;;;;;;;8.17;7.37;;;23.80;64.30;;;27.07;42.72;101373.44;5055499;28;20232;-69
2023/05/22 10:03:25;;;;;;;8.00;7.07;;;23.90;64.30;;;27.14;42.60;101374.00;5054959;28;20200;-68
2023/05/22 10:05:55;;;;;;;8.03;7.23;;;24.00;64.60;;;27.24;42.64;101372.09;5055797;28;20205;-68
2023/05/22 10:08:27;;;;;;;7.83;7.00;;;24.00;64.50;;;27.34;42.22;101374.00;5052432;28;20209;-68
2023/05/22 10:10:54;;;;;;;8.97;7.40;;;24.10;64.50;;;27.44;42.24;101379.44;5055142;28;20228;-68
2023/05/22 10:13:25;;;;;;;9.00;7.47;;;24.20;64.30;;;27.50;41.75;101378.38;5054471;28;20186;-68
2023/05/22 10:15:53;;;;;;;6.90;6.30;;;24.30;63.90;;;27.57;41.63;101384.34;5055116;28;20292;-69
2023/05/22 10:18:21;;;;;;;7.10;6.40;;;24.30;63.20;;;27.62;41.21;101376.22;5036545;28;20195;-68
2023/05/22 10:20:49;;;;;;;7.50;6.80;;;24.40;63.10;;;27.72;41.08;101373.47;5035292;28;20205;-69